DAOO

Es Senia Airport

Airport
ICAO code
DAOO
IATA Code
ORN
Summary
ICAO Region
AFI
ICAO Territory
Location

, Oran

Serving
Oran
Elevation
295 ft
Coordinates
35° 37' 26" N , 0° 37' 16" W
Metar
DAOO 041200Z 22017KT 9999 BKN030 19/08 Q1021

Runways

Designator Length Width Surface Rops
7/25 3060 45 ASP Yes/Yes

Airport map

Aerial View

SKYbrary Partners:

Safety knowledge contributed by: